Time;durP1;ratioP1;P1;durP2;ratioP2;P2;SDS_P1;SDS_P2;PMS_P1;PMS_P2;Temp;Humidity;BMP_temperature;BMP_pressure;BME280_temperature;BME280_humidity;BME280_pressure;Samples;Min_cycle;Max_cycle;Signal;HPM_P1;HPM_P2
2022/03/23 00:02:14;;;;;;;15.75;14.15;;;7.50;78.80;;;;;;6003488;23;20218;-79
2022/03/23 00:04:40;;;;;;;15.15;13.60;;;7.40;78.90;;;;;;6004104;23;20225;-78
2022/03/23 00:07:07;;;;;;;14.18;12.77;;;7.20;79.10;;;;;;5999618;23;20602;-78
2022/03/23 00:09:34;;;;;;;15.52;13.93;;;7.10;79.60;;;;;;6000951;23;20338;-79
2022/03/23 00:12:01;;;;;;;14.10;12.80;;;6.90;79.90;;;;;;6004836;23;20194;-79
2022/03/23 00:14:29;;;;;;;14.68;13.20;;;6.80;80.90;;;;;;6000333;23;20210;-79
2022/03/23 00:16:56;;;;;;;14.43;12.93;;;6.70;81.90;;;;;;6003515;23;20190;-79
2022/03/23 00:19:24;;;;;;;13.85;12.50;;;6.60;82.90;;;;;;6003034;23;20208;-79
2022/03/23 00:21:52;;;;;;;14.63;13.13;;;6.60;83.60;;;;;;6002419;23;20194;-78
2022/03/23 00:24:19;;;;;;;13.55;12.15;;;6.50;84.20;;;;;;6003580;23;20635;-78
2022/03/23 00:26:46;;;;;;;14.38;12.73;;;6.50;84.70;;;;;;6002239;23;20221;-78
2022/03/23 00:29:13;;;;;;;12.27;11.02;;;6.50;85.00;;;;;;6004636;23;20704;-78
2022/03/23 00:31:41;;;;;;;14.00;12.68;;;6.40;85.10;;;;;;6002608;23;20194;-79
2022/03/23 00:34:08;;;;;;;14.65;13.10;;;6.40;85.20;;;;;;5994327;23;20309;-78
2022/03/23 00:36:35;;;;;;;13.25;11.95;;;6.40;85.20;;;;;;5997000;23;20190;-79
2022/03/23 00:39:02;;;;;;;15.07;13.15;;;6.40;85.60;;;;;;6003756;23;20190;-79
2022/03/23 00:41:29;;;;;;;14.63;12.20;;;6.40;85.70;;;;;;6002785;23;20869;-79
2022/03/23 00:43:56;;;;;;;14.43;12.70;;;6.40;86.10;;;;;;6002063;23;20265;-79
2022/03/23 00:46:24;;;;;;;15.65;12.80;;;6.30;86.40;;;;;;6001470;23;20389;-81
2022/03/23 00:48:53;;;;;;;15.13;13.35;;;6.30;86.90;;;;;;5995858;23;20190;-78
2022/03/23 00:51:20;;;;;;;14.88;13.38;;;6.20;87.30;;;;;;5993325;23;20201;-78
2022/03/23 00:53:47;;;;;;;15.10;13.50;;;6.20;87.80;;;;;;6003619;23;20220;-79
2022/03/23 00:56:14;;;;;;;16.23;14.27;;;6.20;88.10;;;;;;6002933;23;20273;-79
2022/03/23 00:58:41;;;;;;;15.73;13.98;;;6.20;88.40;;;;;;6003518;23;20216;-78
2022/03/23 01:01:08;;;;;;;14.45;12.93;;;6.10;88.60;;;;;;6003360;23;20200;-78
2022/03/23 01:03:35;;;;;;;16.13;14.38;;;6.00;88.80;;;;;;6001099;23;20225;-78
2022/03/23 01:06:03;;;;;;;18.55;13.80;;;6.00;89.10;;;;;;6002453;23;20272;-78
2022/03/23 01:08:30;;;;;;;16.75;14.95;;;6.00;89.20;;;;;;6003484;23;20198;-78
2022/03/23 01:10:58;;;;;;;14.95;13.35;;;6.00;89.10;;;;;;6004020;23;20198;-78
2022/03/23 01:13:24;;;;;;;19.13;15.60;;;6.00;88.80;;;;;;6001879;23;20217;-78
2022/03/23 01:15:51;;;;;;;14.88;13.32;;;6.00;88.70;;;;;;6001357;23;20194;-78
2022/03/23 01:18:18;;;;;;;14.95;13.27;;;6.00;88.70;;;;;;6004084;23;20229;-78
2022/03/23 01:20:45;;;;;;;15.35;13.85;;;6.00;88.30;;;;;;6000806;23;20217;-78
2022/03/23 01:23:14;;;;;;;14.77;13.27;;;6.10;88.00;;;;;;5997634;23;20268;-78
2022/03/23 01:25:41;;;;;;;15.23;13.70;;;6.10;87.60;;;;;;5995408;23;20186;-78
2022/03/23 01:28:08;;;;;;;15.88;14.27;;;6.20;87.10;;;;;;6004188;23;20190;-78
2022/03/23 01:30:35;;;;;;;14.38;12.88;;;6.20;86.80;;;;;;6002933;23;20221;-78
2022/03/23 01:33:02;;;;;;;17.02;14.30;;;6.20;87.20;;;;;;6002272;23;20218;-78
2022/03/23 01:35:29;;;;;;;16.27;13.45;;;6.20;87.60;;;;;;5995936;23;20190;-78
2022/03/23 01:37:56;;;;;;;18.70;13.38;;;6.20;86.90;;;;;;5996225;23;20200;-78
2022/03/23 01:40:25;;;;;;;16.10;14.38;;;6.20;87.30;;;;;;5993318;23;20193;-78
2022/03/23 01:42:52;;;;;;;16.73;15.02;;;6.30;87.80;;;;;;6001607;23;20225;-78
2022/03/23 01:45:19;;;;;;;15.23;13.07;;;6.40;87.90;;;;;;5990038;23;20229;-78
2022/03/23 01:47:46;;;;;;;18.83;14.45;;;6.40;87.40;;;;;;6004240;23;20198;-78
2022/03/23 01:50:13;;;;;;;15.70;14.10;;;6.40;87.70;;;;;;6002735;23;20221;-78
2022/03/23 01:52:40;;;;;;;16.08;14.30;;;6.40;87.70;;;;;;6003431;23;20241;-78
2022/03/23 01:55:09;;;;;;;15.15;13.75;;;6.40;87.70;;;;;;6002414;23;20668;-78
2022/03/23 01:57:40;;;;;;;15.48;13.88;;;6.40;87.70;;;;;;6000850;23;20186;-78
2022/03/23 02:00:09;;;;;;;18.27;14.57;;;6.40;87.50;;;;;;6004062;23;21059;-78
2022/03/23 02:02:35;;;;;;;18.05;14.95;;;6.30;87.40;;;;;;6004393;23;20612;-78
2022/03/23 02:05:02;;;;;;;14.95;13.43;;;6.30;87.50;;;;;;6003776;23;20194;-78
2022/03/23 02:07:30;;;;;;;18.27;14.93;;;6.30;87.60;;;;;;6002571;23;20187;-78
2022/03/23 02:09:57;;;;;;;15.52;14.02;;;6.20;87.70;;;;;;6004370;23;20703;-78
2022/03/23 02:12:25;;;;;;;16.50;13.38;;;6.20;87.90;;;;;;6005662;23;20220;-78
2022/03/23 02:14:53;;;;;;;15.35;13.73;;;6.10;88.10;;;;;;6002005;23;20190;-78
2022/03/23 02:17:20;;;;;;;15.10;13.50;;;6.10;88.50;;;;;;6002994;23;20680;-78
2022/03/23 02:19:47;;;;;;;17.25;15.40;;;6.00;88.70;;;;;;6002354;23;20201;-78
2022/03/23 02:22:16;;;;;;;19.05;14.68;;;5.90;89.30;;;;;;6003772;23;21714;-78
2022/03/23 02:24:46;;;;;;;14.70;13.05;;;5.80;89.70;;;;;;6001945;23;20189;-78
2022/03/23 02:27:14;;;;;;;13.98;12.13;;;5.60;90.10;;;;;;6002175;23;20198;-78
2022/03/23 02:29:41;;;;;;;13.95;12.45;;;5.50;90.20;;;;;;6005034;23;20197;-78
2022/03/23 02:32:08;;;;;;;13.23;11.23;;;5.40;90.40;;;;;;6003359;23;20214;-78
2022/03/23 02:34:36;;;;;;;12.68;11.38;;;5.30;90.80;;;;;;6002856;23;20284;-78
2022/03/23 02:37:04;;;;;;;13.52;12.27;;;5.20;91.10;;;;;;6000589;23;20272;-78
2022/03/23 02:39:32;;;;;;;13.52;11.95;;;5.10;91.10;;;;;;6002204;23;20606;-78
2022/03/23 02:41:59;;;;;;;13.38;11.18;;;5.00;91.20;;;;;;6003857;23;20270;-78
2022/03/23 02:44:26;;;;;;;13.00;11.52;;;5.00;91.40;;;;;;6003514;23;20221;-78
2022/03/23 02:46:54;;;;;;;13.90;12.50;;;4.90;91.50;;;;;;6002427;23;20284;-78
2022/03/23 02:49:21;;;;;;;12.15;10.80;;;4.90;91.70;;;;;;5997300;23;20672;-78
2022/03/23 02:51:48;;;;;;;11.90;10.65;;;4.80;91.70;;;;;;6002339;23;20193;-78
2022/03/23 03:02:42;;;;;;;12.70;10.85;;;4.80;92.10;;;;;;6005205;23;20352;-78
2022/03/23 03:05:12;;;;;;;12.45;11.00;;;4.70;92.30;;;;;;6002611;23;20540;-78
2022/03/23 03:10:26;;;;;;;13.38;12.10;;;4.50;92.80;;;;;;5999735;23;20721;-78
2022/03/23 03:12:55;;;;;;;13.02;11.43;;;4.40;93.00;;;;;;6003462;23;20307;-78
2022/03/23 03:15:24;;;;;;;12.85;11.55;;;4.30;93.60;;;;;;6001197;23;20999;-78
2022/03/23 03:17:51;;;;;;;14.07;11.65;;;4.20;94.00;;;;;;6002455;23;20201;-78
2022/03/23 03:20:18;;;;;;;14.45;12.95;;;4.20;94.60;;;;;;6002448;23;20200;-78
2022/03/23 03:22:46;;;;;;;13.50;12.18;;;4.20;95.10;;;;;;6002202;23;20237;-78
2022/03/23 03:25:15;;;;;;;18.67;13.82;;;4.20;95.80;;;;;;6002678;23;20283;-78
2022/03/23 03:27:42;;;;;;;14.88;12.82;;;4.20;96.40;;;;;;6004674;23;20194;-78
2022/03/23 03:30:13;;;;;;;14.40;12.15;;;4.10;96.70;;;;;;6000032;23;20236;-78
2022/03/23 03:32:41;;;;;;;14.15;12.57;;;4.10;96.90;;;;;;6003440;23;20680;-78
2022/03/23 03:35:09;;;;;;;15.05;13.45;;;4.10;97.20;;;;;;5994378;23;20193;-78
2022/03/23 03:37:36;;;;;;;12.70;11.50;;;4.10;97.30;;;;;;6003034;23;20653;-78
2022/03/23 03:40:05;;;;;;;13.50;12.07;;;4.10;97.20;;;;;;6002257;23;20225;-78
2022/03/23 03:42:32;;;;;;;14.27;12.75;;;4.00;97.10;;;;;;6002245;23;20335;-78
2022/03/23 03:44:59;;;;;;;15.10;12.98;;;4.00;97.40;;;;;;5998316;23;20283;-78
2022/03/23 03:47:27;;;;;;;14.02;11.93;;;4.00;97.80;;;;;;6003892;23;20200;-78
2022/03/23 03:49:54;;;;;;;14.23;12.63;;;4.00;98.00;;;;;;6002640;23;20200;-78
2022/03/23 03:52:21;;;;;;;13.30;11.90;;;4.00;98.10;;;;;;6003377;23;20218;-78
2022/03/23 03:54:49;;;;;;;13.75;11.73;;;3.90;98.10;;;;;;6002954;23;20279;-78
2022/03/23 03:57:15;;;;;;;12.90;10.82;;;3.90;98.30;;;;;;6002819;23;20197;-78
2022/03/23 03:59:42;;;;;;;12.48;11.18;;;3.90;98.30;;;;;;6002917;23;20196;-78
2022/03/23 04:02:09;;;;;;;16.70;12.18;;;3.90;98.40;;;;;;5993615;23;20788;-78
2022/03/23 04:04:38;;;;;;;13.32;11.93;;;3.80;98.40;;;;;;6002554;23;20749;-78
2022/03/23 04:07:05;;;;;;;12.02;10.77;;;3.80;98.50;;;;;;5996477;23;20201;-78
2022/03/23 04:09:32;;;;;;;12.77;11.45;;;3.80;98.70;;;;;;5998155;23;20201;-78
2022/03/23 04:11:58;;;;;;;15.30;12.70;;;3.70;99.00;;;;;;6003862;23;20291;-78
2022/03/23 04:14:25;;;;;;;13.20;11.80;;;3.70;99.60;;;;;;6003847;23;20196;-78
2022/03/23 04:16:53;;;;;;;14.10;12.52;;;3.60;99.90;;;;;;6003308;23;20897;-78
2022/03/23 04:19:20;;;;;;;16.08;13.18;;;3.60;99.90;;;;;;5999336;23;20604;-78
2022/03/23 04:21:48;;;;;;;14.70;13.20;;;3.50;99.90;;;;;;6002099;23;20197;-78
2022/03/23 04:24:15;;;;;;;13.65;12.27;;;3.50;99.90;;;;;;6002686;23;20255;-78
2022/03/23 04:26:44;;;;;;;13.55;12.15;;;3.40;99.90;;;;;;6001955;23;20200;-79
2022/03/23 04:29:11;;;;;;;15.45;12.52;;;3.40;99.90;;;;;;6003780;23;20197;-78
2022/03/23 04:31:38;;;;;;;15.13;13.23;;;3.30;99.90;;;;;;6000776;23;20797;-78
2022/03/23 04:34:05;;;;;;;15.45;13.05;;;3.30;99.90;;;;;;6003537;23;20222;-78
2022/03/23 04:36:32;;;;;;;16.35;13.25;;;3.20;99.90;;;;;;6003680;23;20201;-78
2022/03/23 04:39:01;;;;;;;15.60;13.38;;;3.20;99.90;;;;;;5999961;23;20191;-78
2022/03/23 04:41:28;;;;;;;16.10;13.27;;;3.20;99.90;;;;;;6002467;23;20194;-78
2022/03/23 04:43:55;;;;;;;14.85;12.75;;;3.10;99.90;;;;;;6002943;23;20218;-78
2022/03/23 04:46:22;;;;;;;14.73;13.27;;;3.10;99.90;;;;;;6004100;23;20194;-78
2022/03/23 04:48:49;;;;;;;16.95;14.38;;;3.00;99.90;;;;;;6000768;23;20539;-78
2022/03/23 04:51:16;;;;;;;17.00;14.38;;;3.00;99.90;;;;;;5994549;23;20187;-80
2022/03/23 04:53:43;;;;;;;16.23;14.52;;;3.00;99.90;;;;;;6000292;23;20266;-78
2022/03/23 04:56:12;;;;;;;15.60;13.88;;;3.00;99.90;;;;;;5994281;23;20193;-78
2022/03/23 04:58:42;;;;;;;15.40;13.75;;;3.10;99.90;;;;;;6002387;23;20232;-78
2022/03/23 05:01:10;;;;;;;16.08;14.38;;;3.10;99.90;;;;;;5997816;23;20670;-78
2022/03/23 05:03:37;;;;;;;18.05;14.30;;;3.10;99.90;;;;;;6004457;23;20224;-78
2022/03/23 05:06:04;;;;;;;16.27;14.50;;;3.10;99.90;;;;;;5997859;23;20211;-77
2022/03/23 05:08:31;;;;;;;16.83;14.98;;;3.10;99.90;;;;;;6011253;23;20193;-81
2022/03/23 05:10:58;;;;;;;18.05;16.00;;;3.10;99.90;;;;;;5999635;23;20189;-78
2022/03/23 05:13:28;;;;;;;17.05;15.25;;;3.10;99.90;;;;;;5996602;23;20217;-78
2022/03/23 05:15:55;;;;;;;18.90;14.95;;;3.20;99.90;;;;;;6000773;23;20199;-76
2022/03/23 05:18:22;;;;;;;17.63;15.75;;;3.20;99.90;;;;;;5996638;23;20237;-77
2022/03/23 05:20:49;;;;;;;18.45;14.50;;;3.20;99.90;;;;;;5995621;23;20274;-78
2022/03/23 05:23:16;;;;;;;18.80;16.65;;;3.20;99.90;;;;;;5999089;23;20221;-78
2022/03/23 05:25:43;;;;;;;18.92;15.90;;;3.20;99.90;;;;;;5989836;23;20239;-78
2022/03/23 05:28:10;;;;;;;18.05;16.10;;;3.20;99.90;;;;;;5999816;23;20225;-78
2022/03/23 05:30:38;;;;;;;18.92;16.02;;;3.20;99.90;;;;;;5991288;23;20226;-78
2022/03/23 05:33:06;;;;;;;16.25;14.43;;;3.20;99.90;;;;;;6000598;23;20721;-78
2022/03/23 05:35:33;;;;;;;18.90;16.92;;;3.30;99.90;;;;;;6000635;23;20661;-78
2022/03/23 05:38:00;;;;;;;17.35;15.65;;;3.30;99.90;;;;;;6000657;23;20598;-78
2022/03/23 05:40:27;;;;;;;18.67;16.35;;;3.30;99.90;;;;;;5989717;23;20241;-77
2022/03/23 05:42:54;;;;;;;18.63;16.55;;;3.30;99.90;;;;;;5998808;23;20299;-78
2022/03/23 05:45:21;;;;;;;18.95;14.65;;;3.40;99.90;;;;;;5995630;23;20616;-78
2022/03/23 05:47:52;;;;;;;18.08;16.17;;;3.40;99.90;;;;;;5994258;23;20192;-78
2022/03/23 05:50:20;;;;;;;18.13;16.20;;;3.40;99.90;;;;;;5997580;23;20186;-77
2022/03/23 05:52:47;;;;;;;17.77;15.80;;;3.40;99.90;;;;;;5991606;23;20214;-77
2022/03/23 05:55:14;;;;;;;18.23;16.33;;;3.50;99.90;;;;;;5997221;23;20595;-77
2022/03/23 05:57:42;;;;;;;21.83;16.92;;;3.50;99.90;;;;;;6000049;23;20188;-76
2022/03/23 06:00:10;;;;;;;18.30;16.40;;;3.50;99.90;;;;;;6001900;23;20655;-77
2022/03/23 06:02:38;;;;;;;18.33;16.27;;;3.50;99.90;;;;;;5998126;23;20263;-77
2022/03/23 06:05:07;;;;;;;17.23;14.60;;;3.50;99.90;;;;;;5993219;23;20244;-77
2022/03/23 06:07:35;;;;;;;20.13;15.05;;;3.50;99.90;;;;;;5995562;23;20182;-76
2022/03/23 06:10:02;;;;;;;18.83;16.17;;;3.50;99.90;;;;;;5995953;23;20197;-77
2022/03/23 06:12:29;;;;;;;17.33;15.45;;;3.60;99.90;;;;;;5997539;23;20777;-77
2022/03/23 06:14:56;;;;;;;17.80;15.95;;;3.60;99.90;;;;;;6000190;23;20190;-78
2022/03/23 06:17:22;;;;;;;18.15;15.60;;;3.80;99.90;;;;;;5987000;23;20231;-78
2022/03/23 06:19:49;;;;;;;16.85;15.00;;;4.00;99.90;;;;;;5981850;23;20261;-76
2022/03/23 06:22:18;;;;;;;20.80;15.77;;;4.20;99.90;;;;;;5980708;23;20237;-78
2022/03/23 06:24:45;;;;;;;17.60;15.32;;;4.50;99.90;;;;;;5992307;23;20214;-78
2022/03/23 06:27:12;;;;;;;17.92;14.57;;;4.70;99.90;;;;;;5993704;23;20696;-78
2022/03/23 06:29:39;;;;;;;18.45;15.60;;;5.00;99.90;;;;;;6000533;23;20592;-78
2022/03/23 06:32:06;;;;;;;19.10;14.68;;;5.20;99.90;;;;;;6001134;23;20596;-78
2022/03/23 06:34:33;;;;;;;17.13;15.07;;;5.50;99.90;;;;;;6000543;23;20586;-78
2022/03/23 06:37:01;;;;;;;17.15;15.30;;;5.60;99.90;;;;;;5998182;23;20186;-78
2022/03/23 06:39:30;;;;;;;17.15;15.40;;;5.90;99.90;;;;;;5995899;23;20186;-78
2022/03/23 06:41:57;;;;;;;17.52;15.63;;;6.20;99.90;;;;;;6001925;23;20233;-78
2022/03/23 06:44:24;;;;;;;16.42;14.70;;;6.40;99.90;;;;;;5999082;23;20217;-78
2022/03/23 06:46:51;;;;;;;16.77;14.75;;;6.60;99.90;;;;;;6001484;23;20182;-78
2022/03/23 06:49:18;;;;;;;17.88;15.90;;;6.80;99.90;;;;;;6000403;23;20684;-78
2022/03/23 06:51:46;;;;;;;19.70;15.60;;;7.10;99.30;;;;;;5993087;23;20211;-78
2022/03/23 06:54:12;;;;;;;16.73;15.00;;;7.40;98.70;;;;;;6002995;23;20204;-78
2022/03/23 06:56:41;;;;;;;17.35;15.13;;;7.60;98.30;;;;;;6004539;23;20272;-78
2022/03/23 06:59:08;;;;;;;17.13;15.30;;;7.80;97.60;;;;;;5998908;23;20278;-78
2022/03/23 07:01:35;;;;;;;19.02;15.13;;;8.10;96.80;;;;;;5999402;23;20222;-78
2022/03/23 07:04:01;;;;;;;17.05;15.30;;;8.30;96.40;;;;;;6000154;23;20182;-78
2022/03/23 07:06:28;;;;;;;16.40;14.70;;;8.40;95.80;;;;;;6003290;23;20195;-78
2022/03/23 07:11:41;;;;;;;17.92;15.30;;;8.70;94.90;;;;;;6001642;23;20289;-79
2022/03/23 07:14:08;;;;;;;20.98;16.02;;;8.80;94.60;;;;;;6001047;23;20190;-79
2022/03/23 07:16:35;;;;;;;17.17;15.20;;;9.00;94.50;;;;;;5999695;23;20266;-79
2022/03/23 07:19:02;;;;;;;19.13;16.17;;;9.40;93.80;;;;;;6004043;23;20278;-79
2022/03/23 07:21:29;;;;;;;19.27;17.27;;;9.70;93.10;;;;;;6000540;23;20206;-79
2022/03/23 07:23:56;;;;;;;18.63;16.00;;;9.80;92.50;;;;;;6003438;23;20274;-79
2022/03/23 07:26:23;;;;;;;19.17;16.52;;;10.00;91.30;;;;;;6002214;23;20198;-79
2022/03/23 07:28:51;;;;;;;18.10;16.25;;;10.30;91.30;;;;;;5996485;23;20262;-78
2022/03/23 07:31:18;;;;;;;19.35;16.92;;;10.60;90.50;;;;;;5999286;23;20215;-79
2022/03/23 07:33:45;;;;;;;18.52;16.63;;;10.70;90.00;;;;;;6003332;23;20184;-79
2022/03/23 07:36:12;;;;;;;19.15;17.20;;;11.10;89.30;;;;;;5998131;23;20209;-79
2022/03/23 07:38:39;;;;;;;19.48;17.58;;;11.40;88.10;;;;;;5995232;23;20192;-79
2022/03/23 07:41:07;;;;;;;19.00;17.10;;;11.80;87.30;;;;;;6000957;23;20190;-79
2022/03/23 07:43:34;;;;;;;18.05;16.25;;;12.20;85.40;;;;;;6004115;23;20221;-79
2022/03/23 07:46:02;;;;;;;20.13;17.15;;;12.60;84.10;;;;;;5999221;23;20296;-79
2022/03/23 07:48:29;;;;;;;19.27;17.38;;;13.10;80.90;;;;;;5993914;23;20194;-79
2022/03/23 07:50:56;;;;;;;17.65;15.98;;;13.20;79.20;;;;;;6000746;23;20182;-79
2022/03/23 07:53:23;;;;;;;19.80;17.65;;;13.40;77.50;;;;;;6001040;23;20276;-79
2022/03/23 07:55:50;;;;;;;18.83;17.05;;;13.20;77.00;;;;;;5999419;23;20190;-78
2022/03/23 07:58:17;;;;;;;19.00;16.80;;;13.50;77.00;;;;;;6000581;23;20194;-79
2022/03/23 08:00:45;;;;;;;20.15;18.17;;;14.00;75.50;;;;;;5995970;23;20190;-79
2022/03/23 08:03:13;;;;;;;19.30;17.40;;;14.60;72.60;;;;;;6002665;23;20186;-79
2022/03/23 08:05:42;;;;;;;18.50;16.77;;;15.20;71.00;;;;;;6001441;23;21003;-79
2022/03/23 08:08:10;;;;;;;19.20;17.20;;;15.60;69.30;;;;;;6001006;23;20437;-79
2022/03/23 08:10:40;;;;;;;19.30;17.40;;;16.20;67.70;;;;;;6000538;23;20444;-80
2022/03/23 08:13:08;;;;;;;18.70;16.73;;;16.50;65.90;;;;;;6000712;23;20490;-79
2022/03/23 08:15:36;;;;;;;19.03;17.33;;;16.50;64.00;;;;;;5999911;23;20836;-79
2022/03/23 08:18:03;;;;;;;19.50;17.50;;;16.70;62.50;;;;;;6002905;23;20455;-80
2022/03/23 08:20:35;;;;;;;18.57;16.80;;;17.00;61.60;;;;;;6002474;23;20448;-79
2022/03/23 08:23:03;;;;;;;20.80;18.70;;;17.60;60.30;;;;;;5994318;23;20471;-79
2022/03/23 08:25:31;;;;;;;20.57;18.50;;;18.00;59.30;;;;;;6001234;23;20469;-79
2022/03/23 08:27:59;;;;;;;21.17;19.17;;;18.30;58.80;;;;;;5999272;23;20520;-80
2022/03/23 08:30:27;;;;;;;21.20;18.97;;;18.80;56.80;;;;;;5999077;23;20443;-80
2022/03/23 08:32:54;;;;;;;19.03;17.20;;;19.40;56.10;;;;;;5999581;23;20509;-80
2022/03/23 08:35:21;;;;;;;18.60;16.90;;;20.00;55.10;;;;;;5999553;23;20468;-80
2022/03/23 08:37:49;;;;;;;20.30;18.30;;;20.60;53.10;;;;;;6001396;23;20444;-80
2022/03/23 08:40:16;;;;;;;19.50;17.60;;;20.40;52.60;;;;;;6001767;23;20520;-80
2022/03/23 08:42:43;;;;;;;19.90;18.10;;;20.50;51.80;;;;;;5996422;23;20461;-80
2022/03/23 08:45:11;;;;;;;18.47;16.87;;;20.90;51.80;;;;;;6002300;23;20476;-80
2022/03/23 08:47:39;;;;;;;20.20;18.40;;;21.50;51.50;;;;;;6003317;23;20940;-80
2022/03/23 08:50:08;;;;;;;19.40;17.60;;;22.10;49.50;;;;;;6001058;23;20447;-80
2022/03/23 08:52:35;;;;;;;21.53;19.70;;;22.80;48.60;;;;;;6001999;23;20466;-80
2022/03/23 08:55:05;;;;;;;20.60;18.60;;;23.30;47.80;;;;;;5997447;23;20526;-80
2022/03/23 08:57:32;;;;;;;20.73;18.83;;;23.60;46.80;;;;;;5991275;23;20451;-80
2022/03/23 08:59:59;;;;;;;19.97;18.17;;;23.80;46.80;;;;;;5990157;23;20529;-80
2022/03/23 09:02:26;;;;;;;20.00;18.10;;;24.10;46.30;;;;;;5990632;23;20454;-79
2022/03/23 09:04:53;;;;;;;19.43;17.80;;;24.60;45.10;;;;;;5988286;23;20461;-79
2022/03/23 09:07:20;;;;;;;20.50;18.90;;;24.90;44.70;;;;;;5998019;23;20439;-79
2022/03/23 09:09:47;;;;;;;18.80;16.97;;;25.40;43.50;;;;;;6002291;23;20448;-79
2022/03/23 09:12:16;;;;;;;19.90;18.07;;;25.60;42.50;;;;;;5999495;23;20462;-79
2022/03/23 09:14:44;;;;;;;20.93;19.03;;;25.40;42.80;;;;;;6000673;23;20437;-79
2022/03/23 09:17:11;;;;;;;20.00;18.00;;;24.60;42.30;;;;;;6001150;23;20445;-79
2022/03/23 09:19:38;;;;;;;18.27;16.60;;;24.40;42.20;;;;;;6001951;23;20457;-79
2022/03/23 09:22:05;;;;;;;19.00;17.03;;;24.70;42.80;;;;;;5999106;23;21038;-79
2022/03/23 09:24:32;;;;;;;19.57;17.97;;;25.00;42.80;;;;;;6002577;23;20508;-79
2022/03/23 09:26:59;;;;;;;18.70;17.17;;;25.10;41.70;;;;;;6001976;23;20457;-79
2022/03/23 09:29:27;;;;;;;18.90;17.40;;;25.40;42.00;;;;;;6001679;23;20849;-79
2022/03/23 09:31:55;;;;;;;19.60;17.70;;;26.20;40.70;;;;;;6001567;23;20505;-79
2022/03/23 09:34:22;;;;;;;18.97;17.37;;;26.50;39.60;;;;;;6001910;23;20472;-80
2022/03/23 09:39:33;;;;;;;18.33;16.83;;;26.60;37.40;;;;;;5997835;23;20936;-79
2022/03/23 09:42:00;;;;;;;17.30;15.90;;;26.90;37.20;;;;;;6002082;23;20461;-79
2022/03/23 09:44:29;;;;;;;18.37;16.77;;;27.20;37.00;;;;;;5996207;23;20437;-79
2022/03/23 09:46:58;;;;;;;18.80;17.20;;;27.20;36.40;;;;;;6000887;23;20476;-79
2022/03/23 09:49:25;;;;;;;18.63;16.80;;;27.40;36.30;;;;;;5995857;23;20528;-79
2022/03/23 09:51:53;;;;;;;17.50;16.17;;;27.50;35.70;;;;;;5997341;23;20460;-81
2022/03/23 09:54:21;;;;;;;18.57;16.80;;;27.60;35.30;;;;;;5994468;23;20442;-82
2022/03/23 09:56:49;;;;;;;18.13;16.73;;;27.50;34.80;;;;;;6002255;23;20437;-79
2022/03/23 09:59:15;;;;;;;20.40;18.80;;;27.40;34.50;;;;;;5998755;23;20444;-79
2022/03/23 10:02:43;;;;;;;20.10;18.50;;;27.80;34.60;;;;;;6002045;23;20976;-79
2022/03/23 10:05:48;;;;;;;18.00;16.50;;;27.70;34.90;;;;;;5994647;23;20515;-81
2022/03/23 10:08:53;;;;;;;19.30;17.80;;;27.80;35.70;;;;;;5995964;23;20469;-82
2022/03/23 10:11:58;;;;;;;19.57;17.97;;;28.40;35.00;;;;;;5998690;23;20535;-79
2022/03/23 10:15:07;;;;;;;20.40;18.80;;;29.00;34.50;;;;;;6001959;23;20468;-80
2022/03/23 10:18:00;;;;;;;21.07;19.30;;;29.00;33.50;;;;;;5999856;23;20943;-80
2022/03/23 10:20:28;;;;;;;18.73;17.23;;;28.50;34.70;;;;;;5996946;23;20855;-81
2022/03/23 10:22:56;;;;;;;19.40;17.80;;;28.50;35.00;;;;;;6000335;23;20808;-81
2022/03/23 10:25:27;;;;;;;20.23;18.53;;;28.70;33.90;;;;;;6000371;23;20548;-81
2022/03/23 10:27:55;;;;;;;20.53;18.67;;;28.60;33.80;;;;;;5997054;23;20524;-81
2022/03/23 10:30:33;;;;;;;21.17;19.27;;;28.90;34.60;;;;;;6001976;23;20487;-81
2022/03/23 10:33:00;;;;;;;18.47;16.97;;;29.10;34.20;;;;;;6004388;23;20508;-80
2022/03/23 10:35:37;;;;;;;18.17;16.67;;;29.00;34.10;;;;;;6002944;23;20452;-81
2022/03/23 10:38:14;;;;;;;18.50;17.00;;;29.30;33.40;;;;;;6000754;23;21005;-81
2022/03/23 10:40:43;;;;;;;21.27;19.50;;;29.60;33.30;;;;;;5996297;23;21045;-81
2022/03/23 10:43:12;;;;;;;18.63;17.10;;;30.00;33.00;;;;;;6003263;23;20745;-81
2022/03/23 10:45:39;;;;;;;19.13;17.73;;;30.10;33.40;;;;;;5998225;23;20490;-81
2022/03/23 10:48:11;;;;;;;19.23;17.67;;;30.20;31.90;;;;;;5997098;23;20454;-81
2022/03/23 10:50:39;;;;;;;18.70;17.30;;;30.00;32.10;;;;;;6001494;23;20536;-81
2022/03/23 10:53:07;;;;;;;18.00;16.67;;;29.80;31.50;;;;;;6001069;23;20532;-81
2022/03/23 10:55:38;;;;;;;18.67;17.17;;;29.60;31.60;;;;;;6002570;23;20691;-81
2022/03/23 10:58:21;;;;;;;18.13;16.77;;;29.40;31.70;;;;;;6002204;23;20441;-81
2022/03/23 11:00:50;;;;;;;22.80;20.97;;;29.50;31.50;;;;;;5996747;23;20504;-81
2022/03/23 11:03:17;;;;;;;17.80;16.33;;;29.40;31.80;;;;;;6002267;23;21120;-81
2022/03/23 11:05:46;;;;;;;14.90;13.70;;;29.50;31.50;;;;;;5999170;23;20469;-81
2022/03/23 11:08:14;;;;;;;13.53;12.60;;;29.50;31.20;;;;;;6001636;23;20495;-81
2022/03/23 11:16:22;;;;;;;13.50;12.50;;;30.20;28.40;;;;;;5986419;23;20840;-81
2022/03/23 11:18:49;;;;;;;14.63;13.40;;;29.90;28.80;;;;;;6001072;23;20449;-80
2022/03/23 11:21:16;;;;;;;13.80;12.63;;;29.80;29.30;;;;;;6003510;23;20488;-81
2022/03/23 11:23:42;;;;;;;13.77;12.67;;;29.70;29.80;;;;;;6001388;23;22224;-81
2022/03/23 11:26:11;;;;;;;13.30;12.33;;;29.60;29.30;;;;;;6002745;23;20468;-81
2022/03/23 11:28:42;;;;;;;15.30;14.00;;;29.50;29.30;;;;;;5999142;23;20946;-81
2022/03/23 11:31:10;;;;;;;14.50;13.50;;;29.30;28.90;;;;;;6000882;23;20668;-81
2022/03/23 11:33:38;;;;;;;13.23;12.23;;;28.80;29.10;;;;;;6002878;23;20492;-81
2022/03/23 11:36:08;;;;;;;11.10;10.30;;;28.50;29.00;;;;;;6004181;23;20457;-81
2022/03/23 11:38:37;;;;;;;11.13;10.33;;;28.80;28.40;;;;;;6002466;23;20487;-81
2022/03/23 11:41:04;;;;;;;10.60;9.90;;;29.10;28.50;;;;;;6000302;23;20559;-81
2022/03/23 11:43:33;;;;;;;11.43;10.63;;;29.10;28.20;;;;;;5998496;23;20520;-80
2022/03/23 11:46:04;;;;;;;10.77;10.00;;;29.10;28.40;;;;;;5991479;23;20475;-81
2022/03/23 11:48:55;;;;;;;11.10;10.20;;;29.30;28.10;;;;;;5993901;23;20433;-81
2022/03/23 11:52:03;;;;;;;10.77;10.07;;;29.50;27.90;;;;;;6001267;23;20497;-81
2022/03/23 11:57:18;;;;;;;9.57;8.87;;;29.80;28.10;;;;;;5997287;23;20970;-81
2022/03/23 11:59:45;;;;;;;10.30;9.63;;;30.30;28.10;;;;;;5997858;23;20520;-81
2022/03/23 12:02:16;;;;;;;10.40;9.70;;;30.60;27.70;;;;;;5992239;23;20465;-81
2022/03/23 12:04:43;;;;;;;10.83;10.03;;;30.90;27.70;;;;;;5995762;23;20433;-82
2022/03/23 12:07:11;;;;;;;11.30;10.50;;;31.20;27.60;;;;;;5989795;23;20477;-81
2022/03/23 12:09:40;;;;;;;11.17;10.40;;;31.00;27.20;;;;;;6001264;23;20468;-81
2022/03/23 12:12:12;;;;;;;11.53;10.57;;;31.20;27.50;;;;;;5991943;23;20461;-81
2022/03/23 12:14:41;;;;;;;11.60;10.80;;;31.50;27.50;;;;;;5997355;23;20506;-81
2022/03/23 12:17:10;;;;;;;12.03;11.03;;;30.70;27.60;;;;;;5997706;23;20541;-81
2022/03/23 12:20:16;;;;;;;11.50;10.50;;;30.10;27.70;;;;;;6003212;23;20461;-81
2022/03/23 12:23:10;;;;;;;11.80;10.90;;;29.60;28.70;;;;;;5949090;24;20474;-81
2022/03/23 12:25:56;;;;;;;12.20;11.20;;;30.10;28.70;;;;;;5998225;23;20442;-80
2022/03/23 12:28:40;;;;;;;12.27;11.23;;;30.10;28.20;;;;;;5999316;23;20467;-81
2022/03/23 12:31:15;;;;;;;27.10;25.00;;;30.40;28.30;;;;;;5993662;23;20492;-81
2022/03/23 12:34:05;;;;;;;12.70;11.70;;;30.40;27.60;;;;;;6002464;23;20443;-81
2022/03/23 12:39:43;;;;;;;10.23;9.53;;;30.10;28.00;;;;;;5995630;23;20445;-81
2022/03/23 12:42:34;;;;;;;10.97;10.20;;;29.90;28.30;;;;;;5999903;23;20463;-81
2022/03/23 12:45:14;;;;;;;10.23;9.53;;;30.00;28.10;;;;;;5978562;23;20789;-81
2022/03/23 12:47:52;;;;;;;10.63;9.77;;;30.10;27.80;;;;;;5999854;23;20535;-81
2022/03/23 12:59:14;;;;;;;11.90;10.90;;;28.70;28.10;;;;;;5999666;23;20529;-81
2022/03/23 13:01:41;;;;;;;11.50;10.70;;;27.60;28.00;;;;;;5997595;23;20471;-81
2022/03/23 13:04:08;;;;;;;11.37;10.57;;;26.50;28.80;;;;;;6001014;23;20798;-81
2022/03/23 13:06:39;;;;;;;12.10;11.20;;;25.80;29.70;;;;;;5998562;23;20478;-81
2022/03/23 13:09:13;;;;;;;11.07;10.20;;;25.90;29.90;;;;;;5995204;23;20782;-81
2022/03/23 13:11:42;;;;;;;11.50;10.60;;;26.10;29.50;;;;;;6004184;23;20457;-81
2022/03/23 13:14:09;;;;;;;11.93;11.03;;;26.20;30.30;;;;;;5988917;23;20453;-81
2022/03/23 13:16:39;;;;;;;12.63;11.63;;;26.60;29.80;;;;;;5998999;23;20445;-81
2022/03/23 13:19:09;;;;;;;12.00;11.10;;;26.90;29.50;;;;;;6002605;23;20461;-81
2022/03/23 13:21:38;;;;;;;12.10;11.20;;;26.80;28.70;;;;;;6002243;23;20595;-81